sensor_id;sensor_type;location;lat;lon;timestamp;temperature;humidity
16867;DHT22;8550;52.596;13.320;2023-09-19T00:03:32;18.40;99.90
16867;DHT22;8550;52.596;13.320;2023-09-19T00:08:34;18.30;99.90
16867;DHT22;8550;52.596;13.320;2023-09-19T00:13:37;18.40;99.90
16867;DHT22;8550;52.596;13.320;2023-09-19T00:18:39;18.30;99.90
16867;DHT22;8550;52.596;13.320;2023-09-19T00:23:41;18.30;99.90
16867;DHT22;8550;52.596;13.320;2023-09-19T00:28:44;18.30;99.90
16867;DHT22;8550;52.596;13.320;2023-09-19T00:33:46;18.30;99.90
16867;DHT22;8550;52.596;13.320;2023-09-19T00:38:49;18.30;99.90
16867;DHT22;8550;52.596;13.320;2023-09-19T00:43:52;18.20;99.90
16867;DHT22;8550;52.596;13.320;2023-09-19T00:48:54;18.20;99.90
16867;DHT22;8550;52.596;13.320;2023-09-19T00:53:58;18.10;99.90
16867;DHT22;8550;52.596;13.320;2023-09-19T00:59:02;18.10;99.90
16867;DHT22;8550;52.596;13.320;2023-09-19T01:04:04;18.00;99.90
16867;DHT22;8550;52.596;13.320;2023-09-19T01:09:06;18.00;99.90
16867;DHT22;8550;52.596;13.320;2023-09-19T01:14:19;18.00;99.90
16867;DHT22;8550;52.596;13.320;2023-09-19T01:20:08;18.10;99.90
16867;DHT22;8550;52.596;13.320;2023-09-19T01:25:50;18.00;99.90
16867;DHT22;8550;52.596;13.320;2023-09-19T01:30:59;18.10;99.90
16867;DHT22;8550;52.596;13.320;2023-09-19T01:36:04;18.10;99.90
16867;DHT22;8550;52.596;13.320;2023-09-19T01:41:12;18.10;99.90
16867;DHT22;8550;52.596;13.320;2023-09-19T01:46:23;18.10;99.90
16867;DHT22;8550;52.596;13.320;2023-09-19T01:51:32;18.10;99.90
16867;DHT22;8550;52.596;13.320;2023-09-19T01:56:40;18.10;99.90
16867;DHT22;8550;52.596;13.320;2023-09-19T02:01:46;17.90;99.90
16867;DHT22;8550;52.596;13.320;2023-09-19T02:06:49;17.80;99.90
16867;DHT22;8550;52.596;13.320;2023-09-19T02:11:52;17.80;99.90
16867;DHT22;8550;52.596;13.320;2023-09-19T02:16:57;17.80;99.90
16867;DHT22;8550;52.596;13.320;2023-09-19T02:22:00;17.80;99.90
16867;DHT22;8550;52.596;13.320;2023-09-19T02:27:04;17.90;99.90
16867;DHT22;8550;52.596;13.320;2023-09-19T02:32:07;17.80;99.90
16867;DHT22;8550;52.596;13.320;2023-09-19T02:37:10;17.80;99.90
16867;DHT22;8550;52.596;13.320;2023-09-19T02:42:14;17.70;99.90
16867;DHT22;8550;52.596;13.320;2023-09-19T02:47:17;17.70;99.90
16867;DHT22;8550;52.596;13.320;2023-09-19T02:52:20;17.60;99.90
16867;DHT22;8550;52.596;13.320;2023-09-19T02:57:22;17.60;99.90
16867;DHT22;8550;52.596;13.320;2023-09-19T03:02:26;17.60;99.90
16867;DHT22;8550;52.596;13.320;2023-09-19T03:07:28;17.60;99.90
16867;DHT22;8550;52.596;13.320;2023-09-19T03:12:30;17.50;99.90
16867;DHT22;8550;52.596;13.320;2023-09-19T03:17:35;17.50;99.90
16867;DHT22;8550;52.596;13.320;2023-09-19T03:22:37;17.50;99.90
16867;DHT22;8550;52.596;13.320;2023-09-19T03:27:39;17.50;99.90
16867;DHT22;8550;52.596;13.320;2023-09-19T03:32:47;17.50;99.90
16867;DHT22;8550;52.596;13.320;2023-09-19T03:37:50;17.50;99.90
16867;DHT22;8550;52.596;13.320;2023-09-19T03:42:53;17.50;99.90
16867;DHT22;8550;52.596;13.320;2023-09-19T03:47:56;17.50;99.90
16867;DHT22;8550;52.596;13.320;2023-09-19T03:52:58;17.60;99.90
16867;DHT22;8550;52.596;13.320;2023-09-19T03:58:00;17.50;99.90
16867;DHT22;8550;52.596;13.320;2023-09-19T04:03:04;17.50;99.90
16867;DHT22;8550;52.596;13.320;2023-09-19T04:08:08;17.40;99.90
16867;DHT22;8550;52.596;13.320;2023-09-19T04:13:10;17.40;99.90
16867;DHT22;8550;52.596;13.320;2023-09-19T04:18:13;17.20;99.90
16867;DHT22;8550;52.596;13.320;2023-09-19T04:23:15;17.10;99.90
16867;DHT22;8550;52.596;13.320;2023-09-19T04:28:17;17.00;99.90
16867;DHT22;8550;52.596;13.320;2023-09-19T04:33:20;17.00;99.90
16867;DHT22;8550;52.596;13.320;2023-09-19T04:38:23;17.00;99.90
16867;DHT22;8550;52.596;13.320;2023-09-19T04:43:25;16.90;99.90
16867;DHT22;8550;52.596;13.320;2023-09-19T04:48:28;16.90;99.90
16867;DHT22;8550;52.596;13.320;2023-09-19T04:53:30;16.80;99.90
16867;DHT22;8550;52.596;13.320;2023-09-19T04:58:32;16.70;99.90
16867;DHT22;8550;52.596;13.320;2023-09-19T05:03:36;16.70;99.90
16867;DHT22;8550;52.596;13.320;2023-09-19T05:08:37;16.70;99.90
16867;DHT22;8550;52.596;13.320;2023-09-19T05:13:39;16.70;99.90
16867;DHT22;8550;52.596;13.320;2023-09-19T05:18:43;16.80;99.90
16867;DHT22;8550;52.596;13.320;2023-09-19T05:23:45;16.70;99.90
16867;DHT22;8550;52.596;13.320;2023-09-19T05:28:54;16.70;99.90
16867;DHT22;8550;52.596;13.320;2023-09-19T05:33:58;16.60;99.90
16867;DHT22;8550;52.596;13.320;2023-09-19T05:39:01;16.70;99.90
16867;DHT22;8550;52.596;13.320;2023-09-19T05:44:04;16.70;99.90
16867;DHT22;8550;52.596;13.320;2023-09-19T05:49:08;16.70;99.90
16867;DHT22;8550;52.596;13.320;2023-09-19T05:54:10;16.90;99.90
16867;DHT22;8550;52.596;13.320;2023-09-19T05:59:12;16.90;99.90
16867;DHT22;8550;52.596;13.320;2023-09-19T06:04:16;16.90;99.90
16867;DHT22;8550;52.596;13.320;2023-09-19T06:09:19;17.00;99.90
16867;DHT22;8550;52.596;13.320;2023-09-19T06:14:23;17.10;99.90
16867;DHT22;8550;52.596;13.320;2023-09-19T06:19:27;17.20;99.90
16867;DHT22;8550;52.596;13.320;2023-09-19T06:24:28;17.20;99.90
16867;DHT22;8550;52.596;13.320;2023-09-19T06:29:31;17.40;99.90
16867;DHT22;8550;52.596;13.320;2023-09-19T06:34:36;17.50;99.90
16867;DHT22;8550;52.596;13.320;2023-09-19T06:39:39;17.70;99.90
16867;DHT22;8550;52.596;13.320;2023-09-19T06:44:42;17.90;99.90
16867;DHT22;8550;52.596;13.320;2023-09-19T06:49:45;18.20;99.90
16867;DHT22;8550;52.596;13.320;2023-09-19T06:54:48;18.50;99.90
16867;DHT22;8550;52.596;13.320;2023-09-19T06:59:53;18.50;99.90
16867;DHT22;8550;52.596;13.320;2023-09-19T07:04:56;19.00;99.90
16867;DHT22;8550;52.596;13.320;2023-09-19T07:09:58;19.40;99.90
16867;DHT22;8550;52.596;13.320;2023-09-19T07:15:00;19.50;99.90
16867;DHT22;8550;52.596;13.320;2023-09-19T07:20:04;19.20;99.90
16867;DHT22;8550;52.596;13.320;2023-09-19T07:25:09;19.00;99.90
16867;DHT22;8550;52.596;13.320;2023-09-19T07:30:11;18.70;99.90
16867;DHT22;8550;52.596;13.320;2023-09-19T07:35:15;18.80;99.90
16867;DHT22;8550;52.596;13.320;2023-09-19T07:40:17;18.80;99.90
16867;DHT22;8550;52.596;13.320;2023-09-19T07:45:19;18.70;99.90
16867;DHT22;8550;52.596;13.320;2023-09-19T07:50:23;18.80;99.90
16867;DHT22;8550;52.596;13.320;2023-09-19T07:55:26;18.80;99.90
16867;DHT22;8550;52.596;13.320;2023-09-19T08:00:29;18.90;99.90
16867;DHT22;8550;52.596;13.320;2023-09-19T08:05:34;18.90;99.90
16867;DHT22;8550;52.596;13.320;2023-09-19T08:10:37;18.90;99.90
16867;DHT22;8550;52.596;13.320;2023-09-19T08:15:43;18.80;99.90
16867;DHT22;8550;52.596;13.320;2023-09-19T08:20:50;18.50;99.90
16867;DHT22;8550;52.596;13.320;2023-09-19T08:25:56;18.50;99.90
16867;DHT22;8550;52.596;13.320;2023-09-19T08:31:02;18.40;99.90
16867;DHT22;8550;52.596;13.320;2023-09-19T08:36:07;18.30;99.90
16867;DHT22;8550;52.596;13.320;2023-09-19T08:41:10;18.50;99.90
16867;DHT22;8550;52.596;13.320;2023-09-19T08:46:15;18.50;99.90
16867;DHT22;8550;52.596;13.320;2023-09-19T08:51:26;18.60;99.90
16867;DHT22;8550;52.596;13.320;2023-09-19T08:56:29;18.70;99.90
16867;DHT22;8550;52.596;13.320;2023-09-19T09:01:32;19.00;99.90
16867;DHT22;8550;52.596;13.320;2023-09-19T09:06:35;19.00;99.90
16867;DHT22;8550;52.596;13.320;2023-09-19T09:11:40;19.10;99.90
16867;DHT22;8550;52.596;13.320;2023-09-19T09:16:42;19.70;99.90
16867;DHT22;8550;52.596;13.320;2023-09-19T09:21:47;20.00;99.90
16867;DHT22;8550;52.596;13.320;2023-09-19T09:26:49;20.10;99.90
16867;DHT22;8550;52.596;13.320;2023-09-19T09:31:51;19.60;99.90
16867;DHT22;8550;52.596;13.320;2023-09-19T09:36:54;19.50;99.90
16867;DHT22;8550;52.596;13.320;2023-09-19T09:41:56;19.70;99.90
16867;DHT22;8550;52.596;13.320;2023-09-19T09:46:59;19.70;99.90
16867;DHT22;8550;52.596;13.320;2023-09-19T09:52:23;19.90;99.90
16867;DHT22;8550;52.596;13.320;2023-09-19T09:57:25;20.00;99.90
16867;DHT22;8550;52.596;13.320;2023-09-19T10:02:29;20.10;99.90
16867;DHT22;8550;52.596;13.320;2023-09-19T10:07:34;20.50;99.90
16867;DHT22;8550;52.596;13.320;2023-09-19T10:12:43;20.50;98.50
16867;DHT22;8550;52.596;13.320;2023-09-19T10:17:47;20.50;99.60
16867;DHT22;8550;52.596;13.320;2023-09-19T10:22:51;20.80;95.40
16867;DHT22;8550;52.596;13.320;2023-09-19T10:28:00;20.90;95.10
16867;DHT22;8550;52.596;13.320;2023-09-19T10:33:04;20.90;94.60
16867;DHT22;8550;52.596;13.320;2023-09-19T10:38:10;21.20;95.40
16867;DHT22;8550;52.596;13.320;2023-09-19T10:43:15;21.10;94.50
16867;DHT22;8550;52.596;13.320;2023-09-19T10:48:19;20.70;93.40
16867;DHT22;8550;52.596;13.320;2023-09-19T10:53:28;20.90;93.80
16867;DHT22;8550;52.596;13.320;2023-09-19T10:58:32;22.10;91.30
16867;DHT22;8550;52.596;13.320;2023-09-19T11:03:39;23.30;87.40
16867;DHT22;8550;52.596;13.320;2023-09-19T11:08:56;23.80;81.70
16867;DHT22;8550;52.596;13.320;2023-09-19T11:14:13;23.90;82.40
16867;DHT22;8550;52.596;13.320;2023-09-19T11:19:16;24.10;78.00
16867;DHT22;8550;52.596;13.320;2023-09-19T11:24:34;23.40;80.30
16867;DHT22;8550;52.596;13.320;2023-09-19T11:29:38;22.50;82.50
16867;DHT22;8550;52.596;13.320;2023-09-19T11:34:45;23.00;81.20
16867;DHT22;8550;52.596;13.320;2023-09-19T11:40:08;23.50;77.10
16867;DHT22;8550;52.596;13.320;2023-09-19T11:50:58;23.10;76.20
16867;DHT22;8550;52.596;13.320;2023-09-19T11:56:06;22.30;79.70
16867;DHT22;8550;52.596;13.320;2023-09-19T12:01:13;22.60;78.80
16867;DHT22;8550;52.596;13.320;2023-09-19T12:06:22;23.30;75.60
16867;DHT22;8550;52.596;13.320;2023-09-19T12:11:29;23.00;75.40
16867;DHT22;8550;52.596;13.320;2023-09-19T12:16:33;22.90;74.90
16867;DHT22;8550;52.596;13.320;2023-09-19T12:21:37;22.50;78.70
16867;DHT22;8550;52.596;13.320;2023-09-19T12:26:42;22.60;79.20
16867;DHT22;8550;52.596;13.320;2023-09-19T12:31:48;21.70;82.60
16867;DHT22;8550;52.596;13.320;2023-09-19T12:37:04;21.40;83.50
16867;DHT22;8550;52.596;13.320;2023-09-19T12:42:09;21.60;78.30
16867;DHT22;8550;52.596;13.320;2023-09-19T12:47:15;21.20;78.70
16867;DHT22;8550;52.596;13.320;2023-09-19T12:52:23;21.80;79.20
16867;DHT22;8550;52.596;13.320;2023-09-19T12:57:28;21.80;79.70
16867;DHT22;8550;52.596;13.320;2023-09-19T13:02:32;21.80;81.00
16867;DHT22;8550;52.596;13.320;2023-09-19T13:07:41;21.50;81.00
16867;DHT22;8550;52.596;13.320;2023-09-19T13:12:47;21.60;78.90
16867;DHT22;8550;52.596;13.320;2023-09-19T13:17:49;21.60;79.60
16867;DHT22;8550;52.596;13.320;2023-09-19T13:22:54;21.70;81.30
16867;DHT22;8550;52.596;13.320;2023-09-19T13:28:00;21.80;79.90
16867;DHT22;8550;52.596;13.320;2023-09-19T13:33:06;21.60;82.20
16867;DHT22;8550;52.596;13.320;2023-09-19T13:38:08;21.70;81.70
16867;DHT22;8550;52.596;13.320;2023-09-19T13:43:13;21.50;81.60
16867;DHT22;8550;52.596;13.320;2023-09-19T13:48:15;21.40;81.80
16867;DHT22;8550;52.596;13.320;2023-09-19T13:53:22;21.60;82.10
16867;DHT22;8550;52.596;13.320;2023-09-19T13:58:27;21.40;81.00
16867;DHT22;8550;52.596;13.320;2023-09-19T14:03:31;21.80;82.00
16867;DHT22;8550;52.596;13.320;2023-09-19T14:08:33;21.40;81.20
16867;DHT22;8550;52.596;13.320;2023-09-19T14:13:37;21.80;80.80
16867;DHT22;8550;52.596;13.320;2023-09-19T14:18:39;22.10;79.70
16867;DHT22;8550;52.596;13.320;2023-09-19T14:23:41;22.30;79.40
16867;DHT22;8550;52.596;13.320;2023-09-19T14:28:45;22.50;78.00
16867;DHT22;8550;52.596;13.320;2023-09-19T14:33:53;22.60;79.90
16867;DHT22;8550;52.596;13.320;2023-09-19T14:38:56;22.30;79.40
16867;DHT22;8550;52.596;13.320;2023-09-19T14:44:01;22.10;80.60
16867;DHT22;8550;52.596;13.320;2023-09-19T14:49:04;22.20;81.40
16867;DHT22;8550;52.596;13.320;2023-09-19T14:54:06;22.10;81.30
16867;DHT22;8550;52.596;13.320;2023-09-19T14:59:10;22.20;81.00
16867;DHT22;8550;52.596;13.320;2023-09-19T15:04:13;22.20;81.10
16867;DHT22;8550;52.596;13.320;2023-09-19T15:09:16;22.40;81.70
16867;DHT22;8550;52.596;13.320;2023-09-19T15:14:21;22.10;81.10
16867;DHT22;8550;52.596;13.320;2023-09-19T15:19:23;21.70;83.50
16867;DHT22;8550;52.596;13.320;2023-09-19T15:24:25;21.40;86.10
16867;DHT22;8550;52.596;13.320;2023-09-19T15:29:29;21.20;86.00
16867;DHT22;8550;52.596;13.320;2023-09-19T15:34:31;21.40;83.50
16867;DHT22;8550;52.596;13.320;2023-09-19T15:39:33;21.20;85.90
16867;DHT22;8550;52.596;13.320;2023-09-19T15:44:38;21.20;87.60
16867;DHT22;8550;52.596;13.320;2023-09-19T15:49:41;20.80;85.30
16867;DHT22;8550;52.596;13.320;2023-09-19T15:54:43;20.70;87.10
16867;DHT22;8550;52.596;13.320;2023-09-19T15:59:47;20.80;86.40
16867;DHT22;8550;52.596;13.320;2023-09-19T16:04:50;20.90;87.40
16867;DHT22;8550;52.596;13.320;2023-09-19T16:09:52;20.70;86.10
16867;DHT22;8550;52.596;13.320;2023-09-19T16:14:55;20.70;85.40
16867;DHT22;8550;52.596;13.320;2023-09-19T16:19:57;20.50;85.80
16867;DHT22;8550;52.596;13.320;2023-09-19T16:24:59;20.50;87.60
16867;DHT22;8550;52.596;13.320;2023-09-19T16:30:03;20.40;87.50
16867;DHT22;8550;52.596;13.320;2023-09-19T16:35:06;20.40;86.30
16867;DHT22;8550;52.596;13.320;2023-09-19T16:40:10;20.00;88.70
16867;DHT22;8550;52.596;13.320;2023-09-19T16:45:14;19.80;88.20
16867;DHT22;8550;52.596;13.320;2023-09-19T16:50:16;19.60;88.80
16867;DHT22;8550;52.596;13.320;2023-09-19T16:55:18;19.40;89.70
16867;DHT22;8550;52.596;13.320;2023-09-19T17:00:23;19.20;90.80
16867;DHT22;8550;52.596;13.320;2023-09-19T17:05:25;19.20;90.30
16867;DHT22;8550;52.596;13.320;2023-09-19T17:10:30;19.10;90.90
16867;DHT22;8550;52.596;13.320;2023-09-19T17:15:34;18.90;91.20
16867;DHT22;8550;52.596;13.320;2023-09-19T17:20:41;18.70;92.30
16867;DHT22;8550;52.596;13.320;2023-09-19T17:25:43;18.60;92.00
16867;DHT22;8550;52.596;13.320;2023-09-19T17:30:47;18.50;92.50
16867;DHT22;8550;52.596;13.320;2023-09-19T17:35:50;18.40;92.70
16867;DHT22;8550;52.596;13.320;2023-09-19T17:40:52;18.30;93.60
16867;DHT22;8550;52.596;13.320;2023-09-19T17:45:55;18.20;94.40
16867;DHT22;8550;52.596;13.320;2023-09-19T17:51:00;18.10;95.70
16867;DHT22;8550;52.596;13.320;2023-09-19T17:56:03;18.10;94.80
16867;DHT22;8550;52.596;13.320;2023-09-19T18:01:10;18.00;95.60
16867;DHT22;8550;52.596;13.320;2023-09-19T18:06:13;17.90;96.10
16867;DHT22;8550;52.596;13.320;2023-09-19T18:11:18;18.00;96.10
16867;DHT22;8550;52.596;13.320;2023-09-19T18:16:26;18.00;96.00
16867;DHT22;8550;52.596;13.320;2023-09-19T18:21:32;17.90;96.30
16867;DHT22;8550;52.596;13.320;2023-09-19T18:26:34;17.90;96.30
16867;DHT22;8550;52.596;13.320;2023-09-19T18:31:40;17.90;95.70
16867;DHT22;8550;52.596;13.320;2023-09-19T18:36:42;17.90;95.70
16867;DHT22;8550;52.596;13.320;2023-09-19T18:41:44;17.90;95.60
16867;DHT22;8550;52.596;13.320;2023-09-19T18:46:48;18.00;95.50
16867;DHT22;8550;52.596;13.320;2023-09-19T18:51:50;18.00;95.60
16867;DHT22;8550;52.596;13.320;2023-09-19T18:56:53;18.00;95.40
16867;DHT22;8550;52.596;13.320;2023-09-19T19:01:56;18.00;96.00
16867;DHT22;8550;52.596;13.320;2023-09-19T19:06:58;17.90;96.00
16867;DHT22;8550;52.596;13.320;2023-09-19T19:12:01;17.90;95.80
16867;DHT22;8550;52.596;13.320;2023-09-19T19:17:04;17.90;96.00
16867;DHT22;8550;52.596;13.320;2023-09-19T19:22:06;18.00;95.80
16867;DHT22;8550;52.596;13.320;2023-09-19T19:27:08;17.90;96.30
16867;DHT22;8550;52.596;13.320;2023-09-19T19:32:11;17.90;96.60
16867;DHT22;8550;52.596;13.320;2023-09-19T19:37:13;17.90;96.70
16867;DHT22;8550;52.596;13.320;2023-09-19T19:42:15;17.90;96.60
16867;DHT22;8550;52.596;13.320;2023-09-19T19:47:18;18.00;96.40
16867;DHT22;8550;52.596;13.320;2023-09-19T19:52:20;17.90;96.60
16867;DHT22;8550;52.596;13.320;2023-09-19T19:57:22;17.80;97.00
16867;DHT22;8550;52.596;13.320;2023-09-19T20:02:26;17.80;97.10
16867;DHT22;8550;52.596;13.320;2023-09-19T20:07:28;17.70;97.20
16867;DHT22;8550;52.596;13.320;2023-09-19T20:12:30;17.70;97.40
16867;DHT22;8550;52.596;13.320;2023-09-19T20:17:34;17.70;97.80
16867;DHT22;8550;52.596;13.320;2023-09-19T20:22:35;17.70;98.00
16867;DHT22;8550;52.596;13.320;2023-09-19T20:27:39;17.60;98.40
16867;DHT22;8550;52.596;13.320;2023-09-19T20:32:42;17.60;98.70
16867;DHT22;8550;52.596;13.320;2023-09-19T20:37:45;17.60;99.10
16867;DHT22;8550;52.596;13.320;2023-09-19T20:42:50;17.70;98.70
16867;DHT22;8550;52.596;13.320;2023-09-19T20:47:56;17.70;98.90
16867;DHT22;8550;52.596;13.320;2023-09-19T20:52:58;17.70;98.80
16867;DHT22;8550;52.596;13.320;2023-09-19T20:58:00;17.70;98.70
16867;DHT22;8550;52.596;13.320;2023-09-19T21:03:04;17.70;98.80
16867;DHT22;8550;52.596;13.320;2023-09-19T21:08:06;17.60;99.00
16867;DHT22;8550;52.596;13.320;2023-09-19T21:13:08;17.70;99.00
16867;DHT22;8550;52.596;13.320;2023-09-19T21:18:12;17.80;98.40
16867;DHT22;8550;52.596;13.320;2023-09-19T21:23:13;17.80;98.40
16867;DHT22;8550;52.596;13.320;2023-09-19T21:28:16;17.70;98.50
16867;DHT22;8550;52.596;13.320;2023-09-19T21:33:19;17.70;98.40
16867;DHT22;8550;52.596;13.320;2023-09-19T21:38:21;17.80;97.90
16867;DHT22;8550;52.596;13.320;2023-09-19T21:43:23;17.80;97.70
16867;DHT22;8550;52.596;13.320;2023-09-19T21:48:26;17.90;97.60
16867;DHT22;8550;52.596;13.320;2023-09-19T21:53:28;17.90;97.40
16867;DHT22;8550;52.596;13.320;2023-09-19T21:58:32;17.90;97.30
16867;DHT22;8550;52.596;13.320;2023-09-19T22:03:38;17.90;97.20
16867;DHT22;8550;52.596;13.320;2023-09-19T22:08:41;17.90;97.20
16867;DHT22;8550;52.596;13.320;2023-09-19T22:13:43;18.00;97.20
16867;DHT22;8550;52.596;13.320;2023-09-19T22:18:46;17.90;97.20
16867;DHT22;8550;52.596;13.320;2023-09-19T22:23:49;17.90;97.40
16867;DHT22;8550;52.596;13.320;2023-09-19T22:28:54;17.80;97.70
16867;DHT22;8550;52.596;13.320;2023-09-19T22:33:58;17.80;97.70
16867;DHT22;8550;52.596;13.320;2023-09-19T22:39:00;17.70;97.70
16867;DHT22;8550;52.596;13.320;2023-09-19T22:44:04;17.70;97.80
16867;DHT22;8550;52.596;13.320;2023-09-19T22:49:09;17.70;98.10
16867;DHT22;8550;52.596;13.320;2023-09-19T22:54:17;17.60;98.20
16867;DHT22;8550;52.596;13.320;2023-09-19T22:59:25;17.60;98.30
16867;DHT22;8550;52.596;13.320;2023-09-19T23:04:30;17.70;98.20
16867;DHT22;8550;52.596;13.320;2023-09-19T23:09:34;17.70;98.20
16867;DHT22;8550;52.596;13.320;2023-09-19T23:14:37;17.70;98.10
16867;DHT22;8550;52.596;13.320;2023-09-19T23:19:44;17.70;98.20
16867;DHT22;8550;52.596;13.320;2023-09-19T23:24:51;17.60;98.10
16867;DHT22;8550;52.596;13.320;2023-09-19T23:29:59;17.60;98.30
16867;DHT22;8550;52.596;13.320;2023-09-19T23:35:02;17.60;98.40
16867;DHT22;8550;52.596;13.320;2023-09-19T23:40:05;17.60;98.70
16867;DHT22;8550;52.596;13.320;2023-09-19T23:45:10;17.40;99.20
16867;DHT22;8550;52.596;13.320;2023-09-19T23:50:13;17.40;99.40
16867;DHT22;8550;52.596;13.320;2023-09-19T23:55:16;17.40;99.80
